createdAt,value
2023-11-13T00:02:33.654Z,46.21
2023-11-13T00:05:12.643Z,46.12
2023-11-13T00:07:47.360Z,46.09
2023-11-13T00:10:23.994Z,46.12
2023-11-13T00:13:03.602Z,46.19
2023-11-13T00:16:13.008Z,46.18
2023-11-13T00:19:13.092Z,46.08
2023-11-13T00:22:32.931Z,46.21
2023-11-13T00:25:50.003Z,46.19
2023-11-13T00:28:43.710Z,46.27
2023-11-13T00:31:17.533Z,46.05
2023-11-13T00:33:51.277Z,46.06
2023-11-13T00:36:24.867Z,45.94
2023-11-13T00:38:58.535Z,45.92
2023-11-13T00:41:36.205Z,46.04
2023-11-13T00:44:23.958Z,46.00
2023-11-13T00:46:58.309Z,45.81
2023-11-13T00:49:32.296Z,45.83
2023-11-13T00:52:06.463Z,45.68
2023-11-13T00:54:39.975Z,45.69
2023-11-13T00:57:13.414Z,45.74
2023-11-13T00:59:47.574Z,45.53
2023-11-13T01:02:23.213Z,46.79
2023-11-13T01:04:56.684Z,47.29
2023-11-13T01:07:30.370Z,47.19
2023-11-13T01:10:05.571Z,47.31
2023-11-13T01:12:39.291Z,47.24
2023-11-13T01:15:14.328Z,47.24
2023-11-13T01:17:48.042Z,47.38
2023-11-13T01:20:21.801Z,47.38
2023-11-13T01:22:55.776Z,47.45
2023-11-13T01:25:29.573Z,47.43
2023-11-13T01:28:04.164Z,47.24
2023-11-13T01:30:38.006Z,47.53
2023-11-13T01:33:12.330Z,47.45
2023-11-13T01:35:46.278Z,47.43
2023-11-13T01:38:20.450Z,47.47
2023-11-13T01:40:55.368Z,47.47
2023-11-13T01:43:29.673Z,47.50
2023-11-13T01:46:04.991Z,47.45
2023-11-13T01:48:38.811Z,47.80
2023-11-13T01:51:12.513Z,47.84
2023-11-13T01:53:46.476Z,47.90
2023-11-13T01:56:21.904Z,47.74
2023-11-13T01:58:56.973Z,47.76
2023-11-13T02:01:32.406Z,47.97
2023-11-13T02:04:06.106Z,48.14
2023-11-13T02:06:39.746Z,48.06
2023-11-13T02:09:15.590Z,48.11
2023-11-13T02:11:49.321Z,48.17
2023-11-13T02:14:23.089Z,48.09
2023-11-13T02:17:06.426Z,48.22
2023-11-13T02:19:40.030Z,48.11
2023-11-13T02:22:13.622Z,48.06
2023-11-13T02:24:47.188Z,48.26
2023-11-13T02:27:23.454Z,48.45
2023-11-13T02:29:56.931Z,48.56
2023-11-13T02:32:31.591Z,48.56
2023-11-13T02:35:06.017Z,48.59
2023-11-13T02:37:39.448Z,48.69
2023-11-13T02:40:14.958Z,48.69
2023-11-13T02:42:48.440Z,48.73
2023-11-13T02:45:24.297Z,48.77
2023-11-13T02:47:57.824Z,48.74
2023-11-13T02:50:33.067Z,49.13
2023-11-13T02:53:06.741Z,49.07
2023-11-13T02:55:40.190Z,49.09
2023-11-13T02:58:13.724Z,49.34
2023-11-13T03:00:48.439Z,49.29
2023-11-13T03:03:26.487Z,49.50
2023-11-13T03:06:00.902Z,49.57
2023-11-13T03:08:34.461Z,49.62
2023-11-13T03:11:08.248Z,49.71
2023-11-13T03:13:42.341Z,49.82
2023-11-13T03:16:17.178Z,50.02
2023-11-13T03:18:50.711Z,49.78
2023-11-13T03:21:24.810Z,49.94
2023-11-13T03:23:58.283Z,49.99
2023-11-13T03:26:31.729Z,50.08
2023-11-13T03:29:05.308Z,49.97
2023-11-13T03:32:04.845Z,50.17
2023-11-13T03:35:21.900Z,50.32
2023-11-13T03:39:01.318Z,50.35
2023-11-13T03:42:40.724Z,50.58
2023-11-13T03:46:20.254Z,50.46
2023-11-13T03:49:59.705Z,50.62
2023-11-13T03:53:39.036Z,50.72
2023-11-13T03:57:18.574Z,50.87
2023-11-13T04:00:57.967Z,50.84
2023-11-13T04:04:38.372Z,50.90
2023-11-13T04:08:17.738Z,50.94
2023-11-13T04:11:57.872Z,51.07
2023-11-13T04:15:39.416Z,51.06
2023-11-13T04:19:15.793Z,51.03
2023-11-13T04:22:17.757Z,51.03
2023-11-13T04:24:51.471Z,51.23
2023-11-13T04:27:25.059Z,51.23
2023-11-13T04:29:59.903Z,51.16
2023-11-13T04:32:33.827Z,51.29
2023-11-13T04:35:08.418Z,51.31
2023-11-13T04:37:41.965Z,51.40
2023-11-13T04:40:17.973Z,51.45
2023-11-13T04:42:51.960Z,51.56
2023-11-13T04:45:25.434Z,51.66
2023-11-13T04:47:58.874Z,51.55
2023-11-13T04:50:32.596Z,51.45
2023-11-13T04:53:08.235Z,51.68
2023-11-13T04:55:41.803Z,51.66
2023-11-13T04:58:15.315Z,51.83
2023-11-13T05:00:48.945Z,51.84
2023-11-13T05:03:22.410Z,51.89
2023-11-13T05:05:56.025Z,51.94
2023-11-13T05:08:30.121Z,52.08
2023-11-13T05:11:03.989Z,52.09
2023-11-13T05:13:38.436Z,52.17
2023-11-13T05:16:17.664Z,52.23
2023-11-13T05:18:52.966Z,52.24
2023-11-13T05:21:27.375Z,52.17
2023-11-13T05:24:00.996Z,52.20
2023-11-13T05:26:34.983Z,52.39
2023-11-13T05:29:32.428Z,52.41
2023-11-13T05:32:43.420Z,52.37
2023-11-13T05:35:36.412Z,52.55
2023-11-13T05:38:23.163Z,52.80
2023-11-13T05:41:56.268Z,52.67
2023-11-13T05:44:58.450Z,52.69
2023-11-13T05:47:53.442Z,52.76
2023-11-13T05:50:55.728Z,52.68
2023-11-13T05:53:58.379Z,52.59
2023-11-13T05:56:54.813Z,52.82
2023-11-13T05:59:50.042Z,52.76
2023-11-13T06:02:25.224Z,52.72
2023-11-13T06:05:07.387Z,52.82
2023-11-13T06:07:57.378Z,52.81
2023-11-13T06:10:46.022Z,52.86
2023-11-13T06:13:30.697Z,52.81
2023-11-13T06:16:28.841Z,52.87
2023-11-13T06:19:08.524Z,52.93
2023-11-13T06:21:43.172Z,53.04
2023-11-13T06:24:17.224Z,52.98
2023-11-13T06:26:50.804Z,53.12
2023-11-13T06:29:26.730Z,53.11
2023-11-13T06:32:00.782Z,53.27
2023-11-13T06:34:34.275Z,53.12
2023-11-13T06:37:07.828Z,53.12
2023-11-13T06:39:42.527Z,53.31
2023-11-13T06:42:16.053Z,53.32
2023-11-13T06:44:49.465Z,53.17
2023-11-13T06:47:22.916Z,53.43
2023-11-13T06:49:56.575Z,53.21
2023-11-13T06:52:32.685Z,53.37
2023-11-13T06:55:06.798Z,53.25
2023-11-13T06:57:40.825Z,53.38
2023-11-13T07:00:18.079Z,53.40
2023-11-13T07:02:53.023Z,53.50
2023-11-13T07:05:27.012Z,53.57
2023-11-13T07:08:00.512Z,53.73
2023-11-13T07:10:37.217Z,53.48
2023-11-13T07:13:12.060Z,53.48
2023-11-13T07:15:46.081Z,53.53
2023-11-13T07:18:20.023Z,53.53
2023-11-13T07:20:54.203Z,53.34
2023-11-13T07:23:30.051Z,53.69
2023-11-13T07:26:06.013Z,53.49
2023-11-13T07:28:39.895Z,53.52
2023-11-13T07:31:15.351Z,53.73
2023-11-13T07:33:48.896Z,53.44
2023-11-13T07:36:22.369Z,53.53
2023-11-13T07:38:55.885Z,53.41
2023-11-13T07:41:34.533Z,53.60
2023-11-13T07:44:09.417Z,53.57
2023-11-13T07:46:43.151Z,53.70
2023-11-13T07:49:17.948Z,53.80
2023-11-13T07:51:51.412Z,52.90
2023-11-13T07:54:26.686Z,53.49
2023-11-13T07:57:00.887Z,53.46
2023-11-13T07:59:35.435Z,53.65
2023-11-13T08:02:10.726Z,53.40
2023-11-13T08:04:44.419Z,53.68
2023-11-13T08:07:25.264Z,53.69
2023-11-13T08:10:02.363Z,53.36
2023-11-13T08:12:36.020Z,53.38
2023-11-13T08:15:13.704Z,53.54
2023-11-13T08:17:50.884Z,53.43
2023-11-13T08:20:27.881Z,53.51
2023-11-13T08:23:02.059Z,53.40
2023-11-13T08:25:38.727Z,53.60
2023-11-13T08:28:12.876Z,53.63
2023-11-13T08:30:47.475Z,53.66
2023-11-13T08:33:21.559Z,53.72
2023-11-13T08:35:56.330Z,53.82
2023-11-13T08:38:40.915Z,53.75
2023-11-13T08:41:20.143Z,53.68
2023-11-13T08:43:56.331Z,53.82
2023-11-13T08:46:31.538Z,53.82
2023-11-13T08:49:07.689Z,53.90
2023-11-13T08:51:41.921Z,45.47
2023-11-13T08:54:20.481Z,45.77
2023-11-13T08:56:57.832Z,46.17
2023-11-13T08:59:32.610Z,46.25
2023-11-13T09:02:08.224Z,46.72
2023-11-13T09:04:45.061Z,46.67
2023-11-13T09:07:18.980Z,46.53
2023-11-13T09:09:56.235Z,46.34
2023-11-13T09:12:31.669Z,46.11
2023-11-13T09:15:05.699Z,46.29
2023-11-13T09:17:42.741Z,46.38
2023-11-13T09:20:20.573Z,46.32
2023-11-13T09:22:54.845Z,45.97
2023-11-13T09:25:29.875Z,46.21
2023-11-13T09:28:03.961Z,45.16
2023-11-13T09:30:38.414Z,44.78
2023-11-13T09:33:13.102Z,45.11
2023-11-13T09:35:49.573Z,44.63
2023-11-13T09:38:24.201Z,45.30
2023-11-13T09:41:08.346Z,44.44
2023-11-13T09:43:43.347Z,45.94
2023-11-13T09:46:21.776Z,46.54
2023-11-13T09:48:59.559Z,46.77
2023-11-13T09:51:47.622Z,47.15
2023-11-13T09:55:01.426Z,49.74
2023-11-13T09:58:01.417Z,49.89
2023-11-13T10:01:09.095Z,49.43
2023-11-13T10:03:54.573Z,48.66
2023-11-13T10:06:51.204Z,47.72
2023-11-13T10:09:31.785Z,47.42
2023-11-13T10:12:33.626Z,47.45
2023-11-13T10:15:13.814Z,46.90
2023-11-13T10:18:01.470Z,46.46
2023-11-13T10:21:01.472Z,46.34
2023-11-13T10:23:48.440Z,46.84
2023-11-13T10:26:51.427Z,47.47
2023-11-13T10:30:08.115Z,45.95
2023-11-13T10:36:35.949Z,46.08
2023-11-13T10:39:56.400Z,46.34
2023-11-13T10:43:09.919Z,46.52
2023-11-13T10:45:56.738Z,46.37
2023-11-13T10:52:35.323Z,46.21
2023-11-13T10:55:31.491Z,46.02
2023-11-13T10:58:34.248Z,45.89
2023-11-13T11:01:34.619Z,46.01
2023-11-13T11:04:33.819Z,45.89
2023-11-13T11:07:29.790Z,46.05
2023-11-13T11:10:14.118Z,45.82
2023-11-13T11:12:56.431Z,45.89
2023-11-13T11:15:58.016Z,45.77
2023-11-13T11:18:44.215Z,45.37
2023-11-13T11:21:40.374Z,45.64
2023-11-13T11:24:22.733Z,45.62
2023-11-13T11:27:00.139Z,45.24
2023-11-13T11:29:41.984Z,45.28
2023-11-13T11:32:25.318Z,45.30
2023-11-13T11:35:04.144Z,45.01
2023-11-13T11:37:38.993Z,44.94
2023-11-13T11:40:16.167Z,45.00
2023-11-13T11:42:52.036Z,45.21
2023-11-13T11:45:28.953Z,45.56
2023-11-13T11:48:06.530Z,45.35
2023-11-13T11:50:43.067Z,45.32
2023-11-13T11:53:21.614Z,45.48
2023-11-13T11:58:49.082Z,45.37
2023-11-13T12:01:29.499Z,45.41
2023-11-13T12:04:05.431Z,45.11
2023-11-13T12:06:40.496Z,45.36
2023-11-13T12:09:14.723Z,44.47
2023-11-13T12:11:50.330Z,45.26
2023-11-13T12:14:24.766Z,45.46
2023-11-13T12:16:58.876Z,45.22
2023-11-13T12:19:32.707Z,46.15
2023-11-13T12:22:07.144Z,45.41
2023-11-13T12:24:41.505Z,45.59
2023-11-13T12:27:30.623Z,45.78
2023-11-13T12:30:16.350Z,44.94
2023-11-13T12:32:51.465Z,44.44
2023-11-13T12:35:26.268Z,44.36
2023-11-13T12:38:00.152Z,44.29
2023-11-13T12:40:35.778Z,43.90
2023-11-13T12:43:09.735Z,44.82
2023-11-13T12:45:43.458Z,44.59
2023-11-13T12:48:23.987Z,45.28
2023-11-13T12:51:02.407Z,45.58
2023-11-13T12:53:36.601Z,45.15
2023-11-13T12:56:11.866Z,44.43
2023-11-13T12:58:51.726Z,45.26
2023-11-13T13:01:25.608Z,44.77
2023-11-13T13:04:00.028Z,44.60
2023-11-13T13:06:39.056Z,45.05
2023-11-13T13:09:14.965Z,44.82
2023-11-13T13:11:50.303Z,44.66
2023-11-13T13:14:24.843Z,44.76
2023-11-13T13:17:01.554Z,45.13
2023-11-13T13:19:39.605Z,45.00
2023-11-13T13:22:14.225Z,44.61
2023-11-13T13:27:42.632Z,45.13
2023-11-13T13:30:53.634Z,45.13
2023-11-13T13:33:52.742Z,44.97
2023-11-13T13:36:44.639Z,45.10
2023-11-13T13:39:52.435Z,44.84
2023-11-13T13:42:41.696Z,45.20
2023-11-13T13:45:51.495Z,44.78
2023-11-13T13:51:55.401Z,44.94
2023-11-13T13:54:59.464Z,45.16
2023-11-13T13:57:50.701Z,44.90
2023-11-13T14:01:01.494Z,44.84
2023-11-13T14:04:14.567Z,45.04
2023-11-13T14:07:00.638Z,44.80
2023-11-13T14:09:34.511Z,44.76
2023-11-13T14:12:18.759Z,45.65
2023-11-13T14:18:15.752Z,44.60
2023-11-13T14:20:53.539Z,44.81
2023-11-13T14:23:32.829Z,44.51
2023-11-13T14:26:17.734Z,44.45
2023-11-13T14:28:59.446Z,44.55
2023-11-13T14:31:35.068Z,44.57
2023-11-13T14:34:09.484Z,45.14
2023-11-13T14:36:44.641Z,44.23
2023-11-13T14:39:22.173Z,44.34
2023-11-13T14:41:56.250Z,43.85
2023-11-13T14:44:30.173Z,44.18
2023-11-13T14:47:05.289Z,44.03
2023-11-13T14:49:39.738Z,43.48
2023-11-13T14:52:24.406Z,44.08
2023-11-13T14:55:14.904Z,44.71
2023-11-13T14:57:52.160Z,44.81
2023-11-13T15:00:28.493Z,44.17
2023-11-13T15:03:04.613Z,44.94
2023-11-13T15:05:40.633Z,45.54
2023-11-13T15:08:15.729Z,45.20
2023-11-13T15:10:52.831Z,46.00
2023-11-13T15:13:26.876Z,45.61
2023-11-13T15:16:03.070Z,45.41
2023-11-13T15:18:47.531Z,46.09
2023-11-13T15:21:27.601Z,44.90
2023-11-13T15:24:06.538Z,44.84
2023-11-13T15:26:42.012Z,44.88
2023-11-13T15:29:26.827Z,44.89
2023-11-13T15:32:01.573Z,45.00
2023-11-13T15:34:36.639Z,44.97
2023-11-13T15:37:12.340Z,44.98
2023-11-13T15:39:46.273Z,44.98
2023-11-13T15:42:21.258Z,44.53
2023-11-13T15:44:55.612Z,44.55
2023-11-13T15:47:30.464Z,44.85
2023-11-13T15:50:07.250Z,44.62
2023-11-13T15:52:44.930Z,44.66
2023-11-13T15:55:19.924Z,44.40
2023-11-13T15:57:55.123Z,44.61
2023-11-13T16:00:30.391Z,44.35
2023-11-13T16:03:07.829Z,44.39
2023-11-13T16:05:41.994Z,44.33
2023-11-13T16:08:18.513Z,44.33
2023-11-13T16:10:52.383Z,44.01
2023-11-13T16:13:27.012Z,43.78
2023-11-13T16:16:01.013Z,44.19
2023-11-13T16:18:40.422Z,44.06
2023-11-13T16:21:18.540Z,44.21
2023-11-13T16:23:59.175Z,44.11
2023-11-13T16:26:55.841Z,43.74
2023-11-13T16:29:30.184Z,44.26
2023-11-13T16:32:05.728Z,44.29
2023-11-13T16:34:40.547Z,44.64
2023-11-13T16:37:14.498Z,44.97
2023-11-13T16:39:48.074Z,45.61
2023-11-13T16:42:21.607Z,46.31
2023-11-13T16:44:55.389Z,46.60
2023-11-13T16:47:34.417Z,46.40
2023-11-13T16:50:10.433Z,46.19
2023-11-13T16:52:44.220Z,45.68
2023-11-13T16:55:18.719Z,45.41
2023-11-13T16:57:53.594Z,44.88
2023-11-13T17:00:27.803Z,44.75
2023-11-13T17:03:01.852Z,44.69
2023-11-13T17:05:37.500Z,44.70
2023-11-13T17:08:11.902Z,44.43
2023-11-13T17:10:46.393Z,44.57
2023-11-13T17:13:20.483Z,44.24
2023-11-13T17:15:54.590Z,44.02
2023-11-13T17:18:29.032Z,44.03
2023-11-13T17:21:04.755Z,44.00
2023-11-13T17:23:39.024Z,43.99
2023-11-13T17:26:13.170Z,43.80
2023-11-13T17:28:47.289Z,43.84
2023-11-13T17:31:24.229Z,43.69
2023-11-13T17:33:58.018Z,43.65
2023-11-13T17:36:33.651Z,43.54
2023-11-13T17:39:08.889Z,43.68
2023-11-13T17:41:44.053Z,43.45
2023-11-13T17:44:20.782Z,43.86
2023-11-13T17:46:54.674Z,43.86
2023-11-13T17:49:29.080Z,43.60
2023-11-13T17:52:04.850Z,43.58
2023-11-13T17:54:39.198Z,43.52
2023-11-13T17:57:15.204Z,43.38
2023-11-13T17:59:50.695Z,43.44
2023-11-13T18:02:26.494Z,43.68
2023-11-13T18:05:00.563Z,43.65
2023-11-13T18:07:34.672Z,43.57
2023-11-13T18:10:11.047Z,43.35
2023-11-13T18:12:45.795Z,43.74
2023-11-13T18:15:19.295Z,43.61
2023-11-13T18:17:52.974Z,43.35
2023-11-13T18:20:29.776Z,43.36
2023-11-13T18:23:10.076Z,43.35
2023-11-13T18:26:01.297Z,43.45
2023-11-13T18:28:36.203Z,43.49
2023-11-13T18:31:11.280Z,43.33
2023-11-13T18:33:45.789Z,43.28
2023-11-13T18:36:20.213Z,43.36
2023-11-13T18:38:57.149Z,43.41
2023-11-13T18:41:31.353Z,43.32
2023-11-13T18:44:04.999Z,43.37
2023-11-13T18:46:39.061Z,43.40
2023-11-13T18:49:12.983Z,43.30
2023-11-13T18:51:46.889Z,43.07
2023-11-13T18:54:20.741Z,43.27
2023-11-13T18:56:54.962Z,43.28
2023-11-13T18:59:29.145Z,43.21
2023-11-13T19:02:03.340Z,43.15
2023-11-13T19:04:38.466Z,43.16
2023-11-13T19:07:12.436Z,43.42
2023-11-13T19:09:46.429Z,43.26
2023-11-13T19:12:20.438Z,43.36
2023-11-13T19:14:54.555Z,43.78
2023-11-13T19:17:29.055Z,44.33
2023-11-13T19:20:03.385Z,44.58
2023-11-13T19:22:37.177Z,44.72
2023-11-13T19:25:12.528Z,44.51
2023-11-13T19:27:46.439Z,44.30
2023-11-13T19:30:21.502Z,44.17
2023-11-13T19:33:01.343Z,44.22
2023-11-13T19:35:38.533Z,44.40
2023-11-13T19:38:12.826Z,44.14
2023-11-13T19:40:47.404Z,44.04
2023-11-13T19:43:23.085Z,44.17
2023-11-13T19:45:58.198Z,44.11
2023-11-13T19:48:33.133Z,44.02
2023-11-13T19:51:09.908Z,44.03
2023-11-13T19:53:44.962Z,43.91
2023-11-13T19:56:21.408Z,43.96
2023-11-13T19:58:55.943Z,43.69
2023-11-13T20:01:30.206Z,43.23
2023-11-13T20:04:05.205Z,43.99
2023-11-13T20:06:39.185Z,44.44
2023-11-13T20:09:16.099Z,45.87
2023-11-13T20:11:50.165Z,45.30
2023-11-13T20:14:25.530Z,45.28
2023-11-13T20:16:59.607Z,44.79
2023-11-13T20:19:33.812Z,45.07
2023-11-13T20:22:07.849Z,45.10
2023-11-13T20:24:41.715Z,45.15
2023-11-13T20:27:16.624Z,44.72
2023-11-13T20:30:03.801Z,44.87
2023-11-13T20:32:40.244Z,44.72
2023-11-13T20:35:17.842Z,44.83
2023-11-13T20:37:53.530Z,44.90
2023-11-13T20:40:27.751Z,44.85
2023-11-13T20:43:01.251Z,44.10
2023-11-13T20:45:34.939Z,44.93
2023-11-13T20:48:10.020Z,44.82
2023-11-13T20:50:44.257Z,45.01
2023-11-13T20:53:19.667Z,45.05
2023-11-13T20:55:53.634Z,45.06
2023-11-13T20:58:28.162Z,45.31
2023-11-13T21:01:01.881Z,44.76
2023-11-13T21:03:35.480Z,44.95
2023-11-13T21:06:09.816Z,44.95
2023-11-13T21:08:43.355Z,44.98
2023-11-13T21:11:17.670Z,44.95
2023-11-13T21:13:51.222Z,44.99
2023-11-13T21:16:25.897Z,44.80
2023-11-13T21:19:00.011Z,44.64
2023-11-13T21:21:36.187Z,44.90
2023-11-13T21:24:12.417Z,44.69
2023-11-13T21:26:46.076Z,44.59
2023-11-13T21:29:19.907Z,44.88
2023-11-13T21:31:55.657Z,44.77
2023-11-13T21:34:29.511Z,44.67
2023-11-13T21:37:03.460Z,45.73
2023-11-13T21:39:37.251Z,45.42
2023-11-13T21:42:11.955Z,45.23
2023-11-13T21:44:46.305Z,45.00
2023-11-13T21:47:19.843Z,45.35
2023-11-13T21:49:53.470Z,45.21
2023-11-13T21:52:26.992Z,45.21
2023-11-13T21:55:00.681Z,45.32
2023-11-13T21:57:34.605Z,45.30
2023-11-13T22:00:12.420Z,45.17
2023-11-13T22:02:48.170Z,45.29
2023-11-13T22:05:22.186Z,45.30
2023-11-13T22:07:55.794Z,45.46
2023-11-13T22:10:29.410Z,45.41
2023-11-13T22:13:03.585Z,45.43
2023-11-13T22:15:37.943Z,45.51
2023-11-13T22:18:11.896Z,45.67
2023-11-13T22:20:45.666Z,45.60
2023-11-13T22:23:19.353Z,45.49
2023-11-13T22:25:53.112Z,45.49
2023-11-13T22:28:26.790Z,45.43
2023-11-13T22:31:00.443Z,45.36
2023-11-13T22:33:34.178Z,45.58
2023-11-13T22:36:09.050Z,45.42
2023-11-13T22:38:42.658Z,45.29
2023-11-13T22:41:16.994Z,45.44
2023-11-13T22:43:50.612Z,45.55
2023-11-13T22:46:24.420Z,45.47
2023-11-13T22:48:58.068Z,45.51
2023-11-13T22:51:32.597Z,45.48
2023-11-13T22:54:06.414Z,45.35
2023-11-13T22:56:40.207Z,45.39
2023-11-13T22:59:14.152Z,45.62
2023-11-13T23:01:47.782Z,45.30
2023-11-13T23:04:21.839Z,45.39
2023-11-13T23:06:56.457Z,45.47
2023-11-13T23:09:30.428Z,45.59
2023-11-13T23:12:04.353Z,45.68
2023-11-13T23:14:40.866Z,45.83
2023-11-13T23:17:16.946Z,45.65
2023-11-13T23:19:50.547Z,45.64
2023-11-13T23:22:24.126Z,46.03
2023-11-13T23:24:57.860Z,46.16
2023-11-13T23:27:32.059Z,46.09
2023-11-13T23:30:09.460Z,45.99
2023-11-13T23:32:43.585Z,45.93
2023-11-13T23:35:17.522Z,46.22
2023-11-13T23:37:51.633Z,46.15
2023-11-13T23:40:26.024Z,46.17
2023-11-13T23:42:59.627Z,46.25
2023-11-13T23:45:34.028Z,46.58
2023-11-13T23:48:10.245Z,46.57
2023-11-13T23:50:43.957Z,46.64
2023-11-13T23:53:17.419Z,46.74
2023-11-13T23:55:50.906Z,46.75
2023-11-13T23:58:24.415Z,46.65
